sensor_id;sensor_type;location;lat;lon;timestamp;P1;durP1;ratioP1;P2;durP2;ratioP2
43184;SDS011;28803;52.308;19.096;2022-12-07T00:01:27;19.30;;;8.15;;
43184;SDS011;28803;52.308;19.096;2022-12-07T00:03:57;17.50;;;8.48;;
43184;SDS011;28803;52.308;19.096;2022-12-07T00:06:33;18.25;;;8.55;;
43184;SDS011;28803;52.308;19.096;2022-12-07T00:09:06;23.05;;;8.25;;
43184;SDS011;28803;52.308;19.096;2022-12-07T00:11:35;19.92;;;8.85;;
43184;SDS011;28803;52.308;19.096;2022-12-07T00:14:04;14.75;;;7.22;;
43184;SDS011;28803;52.308;19.096;2022-12-07T00:16:33;19.30;;;8.45;;
43184;SDS011;28803;52.308;19.096;2022-12-07T00:19:02;16.58;;;8.73;;
43184;SDS011;28803;52.308;19.096;2022-12-07T00:21:34;24.08;;;8.48;;
43184;SDS011;28803;52.308;19.096;2022-12-07T00:24:03;15.40;;;7.40;;
43184;SDS011;28803;52.308;19.096;2022-12-07T00:26:34;15.52;;;7.60;;
43184;SDS011;28803;52.308;19.096;2022-12-07T00:29:04;23.38;;;9.10;;
43184;SDS011;28803;52.308;19.096;2022-12-07T00:31:34;16.42;;;8.30;;
43184;SDS011;28803;52.308;19.096;2022-12-07T00:34:12;17.75;;;8.82;;
43184;SDS011;28803;52.308;19.096;2022-12-07T00:36:44;18.08;;;8.38;;
43184;SDS011;28803;52.308;19.096;2022-12-07T00:39:12;18.67;;;8.77;;
43184;SDS011;28803;52.308;19.096;2022-12-07T00:41:39;18.00;;;8.57;;
43184;SDS011;28803;52.308;19.096;2022-12-07T00:44:06;20.05;;;9.02;;
43184;SDS011;28803;52.308;19.096;2022-12-07T00:46:33;19.65;;;9.57;;
43184;SDS011;28803;52.308;19.096;2022-12-07T00:49:01;20.50;;;8.52;;
43184;SDS011;28803;52.308;19.096;2022-12-07T00:51:27;21.35;;;7.72;;
43184;SDS011;28803;52.308;19.096;2022-12-07T00:53:55;18.40;;;7.05;;
43184;SDS011;28803;52.308;19.096;2022-12-07T00:56:23;16.13;;;8.15;;
43184;SDS011;28803;52.308;19.096;2022-12-07T00:58:55;18.58;;;9.00;;
43184;SDS011;28803;52.308;19.096;2022-12-07T01:01:25;21.33;;;8.85;;
43184;SDS011;28803;52.308;19.096;2022-12-07T01:03:54;20.35;;;9.27;;
43184;SDS011;28803;52.308;19.096;2022-12-07T01:06:21;15.85;;;7.55;;
43184;SDS011;28803;52.308;19.096;2022-12-07T01:08:50;20.65;;;8.60;;
43184;SDS011;28803;52.308;19.096;2022-12-07T01:11:19;20.23;;;9.93;;
43184;SDS011;28803;52.308;19.096;2022-12-07T01:13:49;21.23;;;10.02;;
43184;SDS011;28803;52.308;19.096;2022-12-07T01:16:17;27.45;;;10.48;;
43184;SDS011;28803;52.308;19.096;2022-12-07T01:18:47;17.15;;;8.48;;
43184;SDS011;28803;52.308;19.096;2022-12-07T01:21:16;22.77;;;9.20;;
43184;SDS011;28803;52.308;19.096;2022-12-07T01:23:45;23.83;;;9.82;;
43184;SDS011;28803;52.308;19.096;2022-12-07T01:26:13;20.63;;;9.02;;
43184;SDS011;28803;52.308;19.096;2022-12-07T01:28:43;23.00;;;9.30;;
43184;SDS011;28803;52.308;19.096;2022-12-07T01:31:11;19.80;;;9.65;;
43184;SDS011;28803;52.308;19.096;2022-12-07T01:33:45;22.65;;;9.30;;
43184;SDS011;28803;52.308;19.096;2022-12-07T01:38:44;20.38;;;9.43;;
43184;SDS011;28803;52.308;19.096;2022-12-07T01:41:12;21.13;;;8.45;;
43184;SDS011;28803;52.308;19.096;2022-12-07T01:46:35;16.92;;;8.23;;
43184;SDS011;28803;52.308;19.096;2022-12-07T01:49:03;16.80;;;8.50;;
43184;SDS011;28803;52.308;19.096;2022-12-07T01:51:34;21.15;;;9.27;;
43184;SDS011;28803;52.308;19.096;2022-12-07T01:54:07;17.73;;;8.77;;
43184;SDS011;28803;52.308;19.096;2022-12-07T01:56:36;14.55;;;8.32;;
43184;SDS011;28803;52.308;19.096;2022-12-07T01:59:05;19.08;;;8.77;;
43184;SDS011;28803;52.308;19.096;2022-12-07T02:01:32;16.85;;;9.48;;
43184;SDS011;28803;52.308;19.096;2022-12-07T02:04:00;20.40;;;9.80;;
43184;SDS011;28803;52.308;19.096;2022-12-07T02:06:28;16.42;;;9.15;;
43184;SDS011;28803;52.308;19.096;2022-12-07T02:08:55;19.00;;;9.50;;
43184;SDS011;28803;52.308;19.096;2022-12-07T02:11:22;16.15;;;8.10;;
43184;SDS011;28803;52.308;19.096;2022-12-07T02:13:50;16.88;;;7.82;;
43184;SDS011;28803;52.308;19.096;2022-12-07T02:16:36;16.95;;;8.48;;
43184;SDS011;28803;52.308;19.096;2022-12-07T02:22:14;18.50;;;8.77;;
43184;SDS011;28803;52.308;19.096;2022-12-07T02:24:48;18.52;;;8.43;;
43184;SDS011;28803;52.308;19.096;2022-12-07T02:32:38;17.95;;;9.40;;
43184;SDS011;28803;52.308;19.096;2022-12-07T02:35:33;14.70;;;7.82;;
43184;SDS011;28803;52.308;19.096;2022-12-07T02:38:07;17.92;;;7.70;;
43184;SDS011;28803;52.308;19.096;2022-12-07T02:44:10;23.20;;;10.25;;
43184;SDS011;28803;52.308;19.096;2022-12-07T02:46:41;15.57;;;8.05;;
43184;SDS011;28803;52.308;19.096;2022-12-07T02:49:10;16.95;;;8.68;;
43184;SDS011;28803;52.308;19.096;2022-12-07T02:51:39;24.67;;;9.48;;
43184;SDS011;28803;52.308;19.096;2022-12-07T02:54:16;17.73;;;7.72;;
43184;SDS011;28803;52.308;19.096;2022-12-07T03:09:51;9.82;;;5.00;;
43184;SDS011;28803;52.308;19.096;2022-12-07T03:12:32;9.43;;;4.72;;
43184;SDS011;28803;52.308;19.096;2022-12-07T03:15:15;10.65;;;5.30;;
43184;SDS011;28803;52.308;19.096;2022-12-07T03:17:54;10.32;;;5.40;;
43184;SDS011;28803;52.308;19.096;2022-12-07T03:20:24;8.98;;;4.30;;
43184;SDS011;28803;52.308;19.096;2022-12-07T03:22:52;9.05;;;5.15;;
43184;SDS011;28803;52.308;19.096;2022-12-07T03:25:21;12.50;;;5.53;;
43184;SDS011;28803;52.308;19.096;2022-12-07T03:27:59;12.45;;;6.28;;
43184;SDS011;28803;52.308;19.096;2022-12-07T03:30:33;10.07;;;4.80;;
43184;SDS011;28803;52.308;19.096;2022-12-07T03:33:13;10.80;;;5.38;;
43184;SDS011;28803;52.308;19.096;2022-12-07T03:36:05;9.05;;;5.05;;
43184;SDS011;28803;52.308;19.096;2022-12-07T03:38:40;7.55;;;3.78;;
43184;SDS011;28803;52.308;19.096;2022-12-07T03:41:21;9.55;;;5.05;;
43184;SDS011;28803;52.308;19.096;2022-12-07T03:43:51;10.18;;;5.07;;
43184;SDS011;28803;52.308;19.096;2022-12-07T03:49:09;10.65;;;5.38;;
43184;SDS011;28803;52.308;19.096;2022-12-07T03:51:55;9.27;;;5.00;;
43184;SDS011;28803;52.308;19.096;2022-12-07T03:57:10;8.43;;;4.75;;
43184;SDS011;28803;52.308;19.096;2022-12-07T03:59:39;8.88;;;5.22;;
43184;SDS011;28803;52.308;19.096;2022-12-07T04:02:07;10.13;;;4.40;;
43184;SDS011;28803;52.308;19.096;2022-12-07T04:04:34;5.53;;;3.42;;
43184;SDS011;28803;52.308;19.096;2022-12-07T04:07:01;9.65;;;3.95;;
43184;SDS011;28803;52.308;19.096;2022-12-07T04:09:29;6.63;;;3.97;;
43184;SDS011;28803;52.308;19.096;2022-12-07T04:11:56;8.60;;;4.88;;
43184;SDS011;28803;52.308;19.096;2022-12-07T04:14:24;7.95;;;3.67;;
43184;SDS011;28803;52.308;19.096;2022-12-07T04:16:52;6.43;;;3.45;;
43184;SDS011;28803;52.308;19.096;2022-12-07T04:19:24;5.38;;;3.55;;
43184;SDS011;28803;52.308;19.096;2022-12-07T04:21:53;9.43;;;3.00;;
43184;SDS011;28803;52.308;19.096;2022-12-07T04:24:21;7.00;;;4.03;;
43184;SDS011;28803;52.308;19.096;2022-12-07T04:26:48;6.15;;;3.47;;
43184;SDS011;28803;52.308;19.096;2022-12-07T04:29:16;6.75;;;3.50;;
43184;SDS011;28803;52.308;19.096;2022-12-07T04:31:44;8.48;;;3.83;;
43184;SDS011;28803;52.308;19.096;2022-12-07T04:34:12;7.30;;;3.85;;
43184;SDS011;28803;52.308;19.096;2022-12-07T04:36:40;6.18;;;3.10;;
43184;SDS011;28803;52.308;19.096;2022-12-07T04:39:09;5.70;;;3.05;;
43184;SDS011;28803;52.308;19.096;2022-12-07T04:41:45;5.63;;;2.95;;
43184;SDS011;28803;52.308;19.096;2022-12-07T04:44:12;10.68;;;3.83;;
43184;SDS011;28803;52.308;19.096;2022-12-07T04:46:41;6.30;;;2.83;;
43184;SDS011;28803;52.308;19.096;2022-12-07T04:49:09;8.15;;;4.00;;
43184;SDS011;28803;52.308;19.096;2022-12-07T04:51:36;8.20;;;3.92;;
43184;SDS011;28803;52.308;19.096;2022-12-07T04:54:04;7.57;;;3.92;;
43184;SDS011;28803;52.308;19.096;2022-12-07T04:56:31;10.52;;;3.65;;
43184;SDS011;28803;52.308;19.096;2022-12-07T04:58:59;9.43;;;4.07;;
43184;SDS011;28803;52.308;19.096;2022-12-07T05:01:26;10.60;;;5.00;;
43184;SDS011;28803;52.308;19.096;2022-12-07T05:03:53;9.30;;;4.43;;
43184;SDS011;28803;52.308;19.096;2022-12-07T05:06:20;11.02;;;5.43;;
43184;SDS011;28803;52.308;19.096;2022-12-07T05:08:47;15.15;;;5.28;;
43184;SDS011;28803;52.308;19.096;2022-12-07T05:11:14;16.35;;;7.65;;
43184;SDS011;28803;52.308;19.096;2022-12-07T05:14:18;17.45;;;7.20;;
43184;SDS011;28803;52.308;19.096;2022-12-07T05:16:48;16.73;;;7.25;;
43184;SDS011;28803;52.308;19.096;2022-12-07T05:19:17;18.05;;;7.55;;
43184;SDS011;28803;52.308;19.096;2022-12-07T05:21:45;16.00;;;7.75;;
43184;SDS011;28803;52.308;19.096;2022-12-07T05:24:13;17.48;;;7.03;;
43184;SDS011;28803;52.308;19.096;2022-12-07T05:26:42;15.60;;;7.93;;
43184;SDS011;28803;52.308;19.096;2022-12-07T05:29:11;17.83;;;7.20;;
43184;SDS011;28803;52.308;19.096;2022-12-07T05:31:43;17.30;;;7.20;;
43184;SDS011;28803;52.308;19.096;2022-12-07T05:34:10;18.20;;;7.53;;
43184;SDS011;28803;52.308;19.096;2022-12-07T05:36:38;17.08;;;7.63;;
43184;SDS011;28803;52.308;19.096;2022-12-07T05:39:05;17.38;;;7.57;;
43184;SDS011;28803;52.308;19.096;2022-12-07T05:41:32;15.43;;;6.07;;
43184;SDS011;28803;52.308;19.096;2022-12-07T05:44:18;18.33;;;6.53;;
43184;SDS011;28803;52.308;19.096;2022-12-07T05:46:45;14.82;;;6.97;;
43184;SDS011;28803;52.308;19.096;2022-12-07T05:49:12;18.98;;;7.95;;
43184;SDS011;28803;52.308;19.096;2022-12-07T05:51:40;17.52;;;7.20;;
43184;SDS011;28803;52.308;19.096;2022-12-07T05:54:06;17.08;;;7.28;;
43184;SDS011;28803;52.308;19.096;2022-12-07T05:56:34;21.67;;;7.03;;
43184;SDS011;28803;52.308;19.096;2022-12-07T05:59:01;20.05;;;8.00;;
43184;SDS011;28803;52.308;19.096;2022-12-07T06:01:47;22.50;;;7.95;;
43184;SDS011;28803;52.308;19.096;2022-12-07T06:04:14;22.48;;;8.18;;
43184;SDS011;28803;52.308;19.096;2022-12-07T06:06:42;23.23;;;8.32;;
43184;SDS011;28803;52.308;19.096;2022-12-07T06:09:09;24.85;;;9.00;;
43184;SDS011;28803;52.308;19.096;2022-12-07T06:11:37;28.55;;;8.00;;
43184;SDS011;28803;52.308;19.096;2022-12-07T06:14:23;26.98;;;7.80;;
43184;SDS011;28803;52.308;19.096;2022-12-07T06:16:51;20.63;;;7.72;;
43184;SDS011;28803;52.308;19.096;2022-12-07T06:19:18;27.00;;;9.32;;
43184;SDS011;28803;52.308;19.096;2022-12-07T06:21:45;25.10;;;10.63;;
43184;SDS011;28803;52.308;19.096;2022-12-07T06:24:12;26.67;;;8.85;;
43184;SDS011;28803;52.308;19.096;2022-12-07T06:26:41;23.30;;;9.77;;
43184;SDS011;28803;52.308;19.096;2022-12-07T06:29:08;30.45;;;10.52;;
43184;SDS011;28803;52.308;19.096;2022-12-07T06:31:36;24.08;;;9.30;;
43184;SDS011;28803;52.308;19.096;2022-12-07T06:34:05;21.20;;;8.15;;
43184;SDS011;28803;52.308;19.096;2022-12-07T06:36:35;19.50;;;8.63;;
43184;SDS011;28803;52.308;19.096;2022-12-07T06:39:03;23.75;;;8.60;;
43184;SDS011;28803;52.308;19.096;2022-12-07T06:41:30;20.15;;;8.65;;
43184;SDS011;28803;52.308;19.096;2022-12-07T06:43:58;20.30;;;7.50;;
43184;SDS011;28803;52.308;19.096;2022-12-07T06:46:25;25.13;;;8.38;;
43184;SDS011;28803;52.308;19.096;2022-12-07T06:48:52;21.58;;;7.72;;
43184;SDS011;28803;52.308;19.096;2022-12-07T06:51:20;19.80;;;7.97;;
43184;SDS011;28803;52.308;19.096;2022-12-07T06:53:47;19.38;;;7.55;;
43184;SDS011;28803;52.308;19.096;2022-12-07T06:56:14;20.52;;;8.48;;
43184;SDS011;28803;52.308;19.096;2022-12-07T06:58:41;22.35;;;9.35;;
43184;SDS011;28803;52.308;19.096;2022-12-07T07:01:12;24.00;;;9.77;;
43184;SDS011;28803;52.308;19.096;2022-12-07T07:03:40;26.42;;;10.00;;
43184;SDS011;28803;52.308;19.096;2022-12-07T07:06:08;19.35;;;8.27;;
43184;SDS011;28803;52.308;19.096;2022-12-07T07:08:36;23.77;;;9.00;;
43184;SDS011;28803;52.308;19.096;2022-12-07T07:11:05;19.52;;;8.25;;
43184;SDS011;28803;52.308;19.096;2022-12-07T07:13:32;25.48;;;7.25;;
43184;SDS011;28803;52.308;19.096;2022-12-07T07:16:00;18.02;;;7.28;;
43184;SDS011;28803;52.308;19.096;2022-12-07T07:18:27;15.88;;;7.00;;
43184;SDS011;28803;52.308;19.096;2022-12-07T07:20:55;14.98;;;6.32;;
43184;SDS011;28803;52.308;19.096;2022-12-07T07:23:22;18.13;;;7.22;;
43184;SDS011;28803;52.308;19.096;2022-12-07T07:25:50;14.98;;;6.15;;
43184;SDS011;28803;52.308;19.096;2022-12-07T07:28:17;15.95;;;7.05;;
43184;SDS011;28803;52.308;19.096;2022-12-07T07:30:45;20.77;;;7.32;;
43184;SDS011;28803;52.308;19.096;2022-12-07T07:33:12;19.50;;;6.95;;
43184;SDS011;28803;52.308;19.096;2022-12-07T07:35:40;19.10;;;7.65;;
43184;SDS011;28803;52.308;19.096;2022-12-07T07:38:07;21.90;;;8.05;;
43184;SDS011;28803;52.308;19.096;2022-12-07T07:40:35;22.02;;;9.32;;
43184;SDS011;28803;52.308;19.096;2022-12-07T07:43:03;17.75;;;8.18;;
43184;SDS011;28803;52.308;19.096;2022-12-07T07:45:32;14.20;;;7.20;;
43184;SDS011;28803;52.308;19.096;2022-12-07T07:47:59;18.45;;;7.85;;
43184;SDS011;28803;52.308;19.096;2022-12-07T07:50:27;18.20;;;8.95;;
43184;SDS011;28803;52.308;19.096;2022-12-07T07:52:54;16.65;;;8.48;;
43184;SDS011;28803;52.308;19.096;2022-12-07T07:55:23;22.88;;;8.02;;
43184;SDS011;28803;52.308;19.096;2022-12-07T07:57:49;23.25;;;9.20;;
43184;SDS011;28803;52.308;19.096;2022-12-07T08:00:21;26.35;;;9.57;;
43184;SDS011;28803;52.308;19.096;2022-12-07T08:02:48;17.58;;;7.82;;
43184;SDS011;28803;52.308;19.096;2022-12-07T08:05:15;13.93;;;6.72;;
43184;SDS011;28803;52.308;19.096;2022-12-07T08:07:43;20.00;;;7.95;;
43184;SDS011;28803;52.308;19.096;2022-12-07T08:10:12;17.88;;;7.97;;
43184;SDS011;28803;52.308;19.096;2022-12-07T08:12:40;18.10;;;8.38;;
43184;SDS011;28803;52.308;19.096;2022-12-07T08:15:28;17.63;;;7.88;;
43184;SDS011;28803;52.308;19.096;2022-12-07T08:17:57;16.70;;;8.60;;
43184;SDS011;28803;52.308;19.096;2022-12-07T08:20:24;17.50;;;8.52;;
43184;SDS011;28803;52.308;19.096;2022-12-07T08:22:51;16.98;;;7.53;;
43184;SDS011;28803;52.308;19.096;2022-12-07T08:25:19;21.67;;;9.18;;
43184;SDS011;28803;52.308;19.096;2022-12-07T08:27:47;18.00;;;8.48;;
43184;SDS011;28803;52.308;19.096;2022-12-07T08:30:14;29.55;;;13.55;;
43184;SDS011;28803;52.308;19.096;2022-12-07T08:32:41;16.23;;;7.90;;
43184;SDS011;28803;52.308;19.096;2022-12-07T08:35:10;16.73;;;8.60;;
43184;SDS011;28803;52.308;19.096;2022-12-07T08:37:37;19.20;;;8.95;;
43184;SDS011;28803;52.308;19.096;2022-12-07T08:40:05;17.45;;;9.07;;
43184;SDS011;28803;52.308;19.096;2022-12-07T08:42:34;19.10;;;8.43;;
43184;SDS011;28803;52.308;19.096;2022-12-07T08:45:07;19.73;;;9.10;;
43184;SDS011;28803;52.308;19.096;2022-12-07T08:47:41;21.23;;;10.05;;
43184;SDS011;28803;52.308;19.096;2022-12-07T08:50:13;23.13;;;10.40;;
43184;SDS011;28803;52.308;19.096;2022-12-07T08:52:40;23.02;;;11.25;;
43184;SDS011;28803;52.308;19.096;2022-12-07T08:55:10;24.65;;;10.65;;
43184;SDS011;28803;52.308;19.096;2022-12-07T08:57:37;16.63;;;7.38;;
43184;SDS011;28803;52.308;19.096;2022-12-07T09:00:08;20.83;;;9.48;;
43184;SDS011;28803;52.308;19.096;2022-12-07T09:02:35;19.80;;;10.05;;
43184;SDS011;28803;52.308;19.096;2022-12-07T09:05:03;20.30;;;9.77;;
43184;SDS011;28803;52.308;19.096;2022-12-07T09:07:31;22.23;;;10.63;;
43184;SDS011;28803;52.308;19.096;2022-12-07T09:10:00;20.75;;;10.52;;
43184;SDS011;28803;52.308;19.096;2022-12-07T09:12:27;26.13;;;12.25;;
43184;SDS011;28803;52.308;19.096;2022-12-07T09:14:55;19.38;;;10.18;;
43184;SDS011;28803;52.308;19.096;2022-12-07T09:17:22;28.13;;;11.77;;
43184;SDS011;28803;52.308;19.096;2022-12-07T09:19:50;28.95;;;13.57;;
43184;SDS011;28803;52.308;19.096;2022-12-07T09:22:17;23.00;;;12.07;;
43184;SDS011;28803;52.308;19.096;2022-12-07T09:24:45;20.33;;;12.05;;
43184;SDS011;28803;52.308;19.096;2022-12-07T09:27:12;24.75;;;11.73;;
43184;SDS011;28803;52.308;19.096;2022-12-07T09:29:39;22.27;;;10.15;;
43184;SDS011;28803;52.308;19.096;2022-12-07T09:32:06;17.92;;;9.63;;
43184;SDS011;28803;52.308;19.096;2022-12-07T09:34:37;24.20;;;11.48;;
43184;SDS011;28803;52.308;19.096;2022-12-07T09:37:05;27.00;;;12.10;;
43184;SDS011;28803;52.308;19.096;2022-12-07T09:39:33;26.85;;;12.40;;
43184;SDS011;28803;52.308;19.096;2022-12-07T09:42:00;61.83;;;26.45;;
43184;SDS011;28803;52.308;19.096;2022-12-07T09:44:30;92.00;;;34.95;;
43184;SDS011;28803;52.308;19.096;2022-12-07T09:46:58;57.00;;;23.92;;
43184;SDS011;28803;52.308;19.096;2022-12-07T09:49:27;123.10;;;42.40;;
43184;SDS011;28803;52.308;19.096;2022-12-07T09:52:02;169.88;;;59.30;;
43184;SDS011;28803;52.308;19.096;2022-12-07T09:54:35;46.28;;;24.92;;
43184;SDS011;28803;52.308;19.096;2022-12-07T09:57:05;49.38;;;22.50;;
43184;SDS011;28803;52.308;19.096;2022-12-07T09:59:32;168.20;;;78.25;;
43184;SDS011;28803;52.308;19.096;2022-12-07T10:02:19;52.50;;;28.05;;
43184;SDS011;28803;52.308;19.096;2022-12-07T10:04:51;24.98;;;13.02;;
43184;SDS011;28803;52.308;19.096;2022-12-07T10:07:18;26.70;;;13.88;;
43184;SDS011;28803;52.308;19.096;2022-12-07T10:09:46;23.60;;;11.80;;
43184;SDS011;28803;52.308;19.096;2022-12-07T10:12:13;15.85;;;8.27;;
43184;SDS011;28803;52.308;19.096;2022-12-07T10:14:52;18.33;;;8.73;;
43184;SDS011;28803;52.308;19.096;2022-12-07T10:17:38;14.57;;;8.02;;
43184;SDS011;28803;52.308;19.096;2022-12-07T10:22:38;17.95;;;9.93;;
43184;SDS011;28803;52.308;19.096;2022-12-07T10:25:09;18.30;;;8.52;;
43184;SDS011;28803;52.308;19.096;2022-12-07T10:27:57;13.50;;;7.15;;
43184;SDS011;28803;52.308;19.096;2022-12-07T10:30:47;15.65;;;6.68;;
43184;SDS011;28803;52.308;19.096;2022-12-07T10:33:27;13.82;;;6.45;;
43184;SDS011;28803;52.308;19.096;2022-12-07T10:35:57;12.23;;;6.75;;
43184;SDS011;28803;52.308;19.096;2022-12-07T10:38:25;13.50;;;6.32;;
43184;SDS011;28803;52.308;19.096;2022-12-07T10:41:06;17.10;;;7.50;;
43184;SDS011;28803;52.308;19.096;2022-12-07T10:43:33;17.63;;;6.82;;
43184;SDS011;28803;52.308;19.096;2022-12-07T10:46:19;13.88;;;6.40;;
43184;SDS011;28803;52.308;19.096;2022-12-07T10:54:29;15.82;;;6.95;;
43184;SDS011;28803;52.308;19.096;2022-12-07T10:57:25;16.52;;;7.47;;
43184;SDS011;28803;52.308;19.096;2022-12-07T11:00:00;14.32;;;7.45;;
43184;SDS011;28803;52.308;19.096;2022-12-07T11:02:35;15.57;;;7.05;;
43184;SDS011;28803;52.308;19.096;2022-12-07T11:05:25;16.33;;;7.88;;
43184;SDS011;28803;52.308;19.096;2022-12-07T11:08:21;15.73;;;7.55;;
43184;SDS011;28803;52.308;19.096;2022-12-07T11:11:13;17.52;;;8.23;;
43184;SDS011;28803;52.308;19.096;2022-12-07T11:16:56;20.60;;;9.82;;
43184;SDS011;28803;52.308;19.096;2022-12-07T11:25:23;19.37;;;8.80;;
43184;SDS011;28803;52.308;19.096;2022-12-07T11:28:08;18.08;;;8.85;;
43184;SDS011;28803;52.308;19.096;2022-12-07T11:33:33;13.65;;;6.57;;
43184;SDS011;28803;52.308;19.096;2022-12-07T11:42:00;13.10;;;6.10;;
43184;SDS011;28803;52.308;19.096;2022-12-07T11:44:45;13.32;;;6.50;;
43184;SDS011;28803;52.308;19.096;2022-12-07T11:53:26;17.10;;;7.05;;
43184;SDS011;28803;52.308;19.096;2022-12-07T11:56:13;13.25;;;6.68;;
43184;SDS011;28803;52.308;19.096;2022-12-07T12:01:48;14.77;;;6.80;;
43184;SDS011;28803;52.308;19.096;2022-12-07T12:06:55;13.45;;;6.50;;
43184;SDS011;28803;52.308;19.096;2022-12-07T12:09:35;33.22;;;13.77;;
43184;SDS011;28803;52.308;19.096;2022-12-07T12:18:36;23.60;;;11.30;;
43184;SDS011;28803;52.308;19.096;2022-12-07T12:21:08;23.65;;;10.85;;
43184;SDS011;28803;52.308;19.096;2022-12-07T12:23:40;32.45;;;15.52;;
43184;SDS011;28803;52.308;19.096;2022-12-07T12:26:18;63.20;;;26.85;;
43184;SDS011;28803;52.308;19.096;2022-12-07T12:28:56;55.50;;;25.33;;
43184;SDS011;28803;52.308;19.096;2022-12-07T12:42:51;106.15;;;51.15;;
43184;SDS011;28803;52.308;19.096;2022-12-07T12:45:26;50.35;;;30.40;;
43184;SDS011;28803;52.308;19.096;2022-12-07T13:00:47;27.67;;;16.33;;
43184;SDS011;28803;52.308;19.096;2022-12-07T13:03:36;29.42;;;17.05;;
43184;SDS011;28803;52.308;19.096;2022-12-07T13:06:17;25.98;;;12.57;;
43184;SDS011;28803;52.308;19.096;2022-12-07T13:08:44;25.85;;;14.77;;
43184;SDS011;28803;52.308;19.096;2022-12-07T13:11:19;32.83;;;19.67;;
43184;SDS011;28803;52.308;19.096;2022-12-07T13:19:59;23.05;;;12.75;;
43184;SDS011;28803;52.308;19.096;2022-12-07T13:27:37;25.38;;;16.00;;
43184;SDS011;28803;52.308;19.096;2022-12-07T13:30:11;24.70;;;12.80;;
43184;SDS011;28803;52.308;19.096;2022-12-07T13:32:51;19.33;;;9.70;;
43184;SDS011;28803;52.308;19.096;2022-12-07T13:35:30;19.67;;;10.43;;
43184;SDS011;28803;52.308;19.096;2022-12-07T13:38:02;16.67;;;9.00;;
43184;SDS011;28803;52.308;19.096;2022-12-07T13:40:32;17.83;;;9.63;;
43184;SDS011;28803;52.308;19.096;2022-12-07T13:43:00;23.65;;;10.32;;
43184;SDS011;28803;52.308;19.096;2022-12-07T13:45:33;21.33;;;9.80;;
43184;SDS011;28803;52.308;19.096;2022-12-07T13:51:01;19.15;;;9.82;;
43184;SDS011;28803;52.308;19.096;2022-12-07T13:53:29;19.17;;;9.10;;
43184;SDS011;28803;52.308;19.096;2022-12-07T13:55:57;17.48;;;9.88;;
43184;SDS011;28803;52.308;19.096;2022-12-07T13:58:26;18.73;;;10.57;;
43184;SDS011;28803;52.308;19.096;2022-12-07T14:00:56;18.73;;;9.95;;
43184;SDS011;28803;52.308;19.096;2022-12-07T14:03:32;23.52;;;11.75;;
43184;SDS011;28803;52.308;19.096;2022-12-07T14:06:10;25.85;;;11.43;;
43184;SDS011;28803;52.308;19.096;2022-12-07T14:08:40;25.40;;;12.38;;
43184;SDS011;28803;52.308;19.096;2022-12-07T14:11:16;27.52;;;11.73;;
43184;SDS011;28803;52.308;19.096;2022-12-07T14:13:58;24.52;;;13.13;;
43184;SDS011;28803;52.308;19.096;2022-12-07T14:16:32;27.30;;;12.57;;
43184;SDS011;28803;52.308;19.096;2022-12-07T14:19:05;25.55;;;12.40;;
43184;SDS011;28803;52.308;19.096;2022-12-07T14:22:23;21.67;;;11.27;;
43184;SDS011;28803;52.308;19.096;2022-12-07T14:30:29;28.52;;;12.77;;
43184;SDS011;28803;52.308;19.096;2022-12-07T14:33:01;25.35;;;13.27;;
43184;SDS011;28803;52.308;19.096;2022-12-07T14:35:29;31.17;;;14.18;;
43184;SDS011;28803;52.308;19.096;2022-12-07T14:37:58;29.20;;;12.88;;
43184;SDS011;28803;52.308;19.096;2022-12-07T14:40:26;25.80;;;13.52;;
43184;SDS011;28803;52.308;19.096;2022-12-07T14:42:57;23.85;;;13.63;;
43184;SDS011;28803;52.308;19.096;2022-12-07T14:45:33;26.98;;;12.90;;
43184;SDS011;28803;52.308;19.096;2022-12-07T14:48:00;28.10;;;12.60;;
43184;SDS011;28803;52.308;19.096;2022-12-07T14:50:51;29.52;;;13.75;;
43184;SDS011;28803;52.308;19.096;2022-12-07T14:53:44;26.63;;;12.90;;
43184;SDS011;28803;52.308;19.096;2022-12-07T14:56:22;24.13;;;11.17;;
43184;SDS011;28803;52.308;19.096;2022-12-07T14:58:50;28.83;;;13.68;;
43184;SDS011;28803;52.308;19.096;2022-12-07T15:01:17;28.40;;;13.75;;
43184;SDS011;28803;52.308;19.096;2022-12-07T15:03:44;26.13;;;13.00;;
43184;SDS011;28803;52.308;19.096;2022-12-07T15:06:15;26.77;;;13.68;;
43184;SDS011;28803;52.308;19.096;2022-12-07T15:08:44;27.20;;;13.50;;
43184;SDS011;28803;52.308;19.096;2022-12-07T15:11:12;27.70;;;13.98;;
43184;SDS011;28803;52.308;19.096;2022-12-07T15:13:43;27.45;;;12.65;;
43184;SDS011;28803;52.308;19.096;2022-12-07T15:16:29;22.55;;;12.48;;
43184;SDS011;28803;52.308;19.096;2022-12-07T15:19:17;24.80;;;11.68;;
43184;SDS011;28803;52.308;19.096;2022-12-07T15:21:56;29.25;;;12.73;;
43184;SDS011;28803;52.308;19.096;2022-12-07T15:24:25;23.33;;;11.70;;
43184;SDS011;28803;52.308;19.096;2022-12-07T15:26:53;30.40;;;12.55;;
43184;SDS011;28803;52.308;19.096;2022-12-07T15:29:20;23.83;;;12.40;;
43184;SDS011;28803;52.308;19.096;2022-12-07T15:31:49;24.67;;;13.02;;
43184;SDS011;28803;52.308;19.096;2022-12-07T15:34:23;30.33;;;12.88;;
43184;SDS011;28803;52.308;19.096;2022-12-07T15:36:51;20.98;;;11.85;;
43184;SDS011;28803;52.308;19.096;2022-12-07T15:39:19;20.80;;;11.20;;
43184;SDS011;28803;52.308;19.096;2022-12-07T15:41:46;19.05;;;11.75;;
43184;SDS011;28803;52.308;19.096;2022-12-07T15:44:14;21.60;;;11.70;;
43184;SDS011;28803;52.308;19.096;2022-12-07T15:46:59;25.05;;;11.52;;
43184;SDS011;28803;52.308;19.096;2022-12-07T15:49:27;22.13;;;11.35;;
43184;SDS011;28803;52.308;19.096;2022-12-07T15:51:54;24.10;;;12.50;;
43184;SDS011;28803;52.308;19.096;2022-12-07T15:54:22;30.67;;;12.32;;
43184;SDS011;28803;52.308;19.096;2022-12-07T15:56:51;23.83;;;11.02;;
43184;SDS011;28803;52.308;19.096;2022-12-07T15:59:18;15.35;;;7.30;;
43184;SDS011;28803;52.308;19.096;2022-12-07T16:01:45;13.10;;;7.32;;
43184;SDS011;28803;52.308;19.096;2022-12-07T16:04:13;13.35;;;6.95;;
43184;SDS011;28803;52.308;19.096;2022-12-07T16:06:41;13.63;;;6.90;;
43184;SDS011;28803;52.308;19.096;2022-12-07T16:09:08;13.85;;;7.30;;
43184;SDS011;28803;52.308;19.096;2022-12-07T16:11:35;17.65;;;7.05;;
43184;SDS011;28803;52.308;19.096;2022-12-07T16:14:02;18.05;;;8.15;;
43184;SDS011;28803;52.308;19.096;2022-12-07T16:16:29;25.52;;;10.80;;
43184;SDS011;28803;52.308;19.096;2022-12-07T16:18:57;22.08;;;10.57;;
43184;SDS011;28803;52.308;19.096;2022-12-07T16:21:24;24.65;;;10.95;;
43184;SDS011;28803;52.308;19.096;2022-12-07T16:23:51;26.30;;;10.75;;
43184;SDS011;28803;52.308;19.096;2022-12-07T16:26:20;23.17;;;9.85;;
43184;SDS011;28803;52.308;19.096;2022-12-07T16:28:49;18.42;;;9.48;;
43184;SDS011;28803;52.308;19.096;2022-12-07T16:31:18;23.05;;;11.02;;
43184;SDS011;28803;52.308;19.096;2022-12-07T16:33:47;14.48;;;7.40;;
43184;SDS011;28803;52.308;19.096;2022-12-07T16:36:16;25.48;;;9.45;;
43184;SDS011;28803;52.308;19.096;2022-12-07T16:39:04;30.67;;;10.43;;
43184;SDS011;28803;52.308;19.096;2022-12-07T16:41:31;21.88;;;9.48;;
43184;SDS011;28803;52.308;19.096;2022-12-07T16:44:05;20.90;;;10.25;;
43184;SDS011;28803;52.308;19.096;2022-12-07T16:46:36;17.25;;;8.63;;